createdAt,value
2022-12-14T00:02:25.798Z,0.00
2022-12-14T00:07:25.768Z,0.00
2022-12-14T00:12:27.700Z,0.00
2022-12-14T00:17:25.696Z,0.00
2022-12-14T00:22:25.669Z,0.00
2022-12-14T00:27:25.569Z,0.00
2022-12-14T00:32:25.547Z,0.00
2022-12-14T00:37:25.420Z,0.00
2022-12-14T00:42:25.381Z,0.00
2022-12-14T00:47:25.460Z,0.00
2022-12-14T00:52:25.237Z,0.00
2022-12-14T00:57:25.225Z,0.00
2022-12-14T01:02:25.207Z,0.00
2022-12-14T01:07:25.086Z,0.00
2022-12-14T01:12:26.188Z,0.00
2022-12-14T01:17:24.989Z,0.00
2022-12-14T01:22:25.118Z,0.00
2022-12-14T01:27:24.874Z,0.00
2022-12-14T01:32:24.803Z,0.00
2022-12-14T01:37:24.763Z,0.00
2022-12-14T01:42:24.751Z,0.00
2022-12-14T01:47:24.738Z,0.00
2022-12-14T01:52:24.625Z,0.00
2022-12-14T01:57:24.609Z,0.00
2022-12-14T02:02:24.633Z,0.00
2022-12-14T02:07:24.491Z,0.00
2022-12-14T02:12:24.407Z,0.00
2022-12-14T02:17:24.422Z,0.00
2022-12-14T02:22:24.302Z,0.00
2022-12-14T02:27:26.309Z,0.00
2022-12-14T02:32:24.256Z,0.00
2022-12-14T02:37:24.165Z,0.00
2022-12-14T03:00:48.413Z,0.00
2022-12-14T03:05:48.292Z,0.00
2022-12-14T03:10:48.327Z,0.00
2022-12-14T03:15:48.285Z,0.00
2022-12-14T03:20:48.379Z,0.00
2022-12-14T03:25:48.655Z,0.00
2022-12-14T03:31:03.047Z,0.00
2022-12-14T03:35:48.955Z,0.00
2022-12-14T03:40:47.858Z,0.00
2022-12-14T03:45:47.981Z,0.00
2022-12-14T03:50:47.784Z,0.00
2022-12-14T03:55:49.028Z,0.00
2022-12-14T04:00:47.806Z,0.00
2022-12-14T04:05:49.281Z,0.00
2022-12-14T04:10:47.544Z,0.00
2022-12-14T04:15:47.529Z,0.00
2022-12-14T04:20:47.510Z,0.00
2022-12-14T04:25:47.407Z,0.00
2022-12-14T04:30:47.361Z,0.00
2022-12-14T04:35:47.271Z,0.00
2022-12-14T04:40:47.280Z,0.00
2022-12-14T04:45:47.288Z,0.00
2022-12-14T04:50:47.092Z,0.00
2022-12-14T04:55:47.037Z,0.00
2022-12-14T05:00:47.032Z,0.00
2022-12-14T05:05:46.945Z,0.00
2022-12-14T05:10:46.828Z,0.00
2022-12-14T05:15:46.809Z,0.00
2022-12-14T05:20:47.865Z,0.00
2022-12-14T05:25:48.978Z,0.00
2022-12-14T05:30:48.849Z,0.00
2022-12-14T05:35:46.819Z,0.00
2022-12-14T05:40:46.581Z,0.00
2022-12-14T05:45:46.531Z,0.00
2022-12-14T05:50:46.478Z,0.00
2022-12-14T05:55:46.405Z,0.00
2022-12-14T06:00:46.385Z,0.00
2022-12-14T06:05:47.420Z,0.00
2022-12-14T06:10:46.258Z,0.00
2022-12-14T06:15:47.317Z,0.00
2022-12-14T06:20:48.256Z,0.00
2022-12-14T06:25:46.045Z,0.00
2022-12-14T06:30:46.034Z,0.00
2022-12-14T06:35:45.958Z,0.00
2022-12-14T06:40:45.920Z,0.00
2022-12-14T06:45:45.838Z,0.00
2022-12-14T06:50:46.008Z,0.00
2022-12-14T06:55:45.918Z,0.00
2022-12-14T07:00:45.713Z,4.00
2022-12-14T07:05:48.942Z,8.00
2022-12-14T07:10:45.649Z,16.00
2022-12-14T07:15:45.551Z,28.00
2022-12-14T07:20:45.578Z,56.00
2022-12-14T07:25:45.496Z,84.00
2022-12-14T07:30:45.408Z,116.00
2022-12-14T07:35:45.325Z,152.00
2022-12-14T07:40:45.404Z,220.00
2022-12-14T07:45:45.292Z,328.00
2022-12-14T07:50:46.346Z,404.00
2022-12-14T07:55:45.109Z,516.00
2022-12-14T08:00:45.096Z,644.00
2022-12-14T08:05:50.441Z,736.00
2022-12-14T08:10:45.103Z,852.00
2022-12-14T08:15:45.016Z,828.00
2022-12-14T08:20:50.035Z,776.00
2022-12-14T08:25:45.796Z,908.00
2022-12-14T08:30:44.790Z,1048.00
2022-12-14T08:35:44.799Z,1212.00
2022-12-14T08:40:54.070Z,1744.00
2022-12-14T08:45:44.500Z,2220.00
2022-12-14T08:50:44.464Z,1992.00
2022-12-14T08:55:45.412Z,1800.00
2022-12-14T09:00:44.430Z,2092.00
2022-12-14T09:05:44.286Z,2216.00
2022-12-14T09:10:44.233Z,2052.00
2022-12-14T09:15:44.193Z,2048.00
2022-12-14T09:20:44.162Z,2200.00
2022-12-14T09:25:44.066Z,1988.00
2022-12-14T09:30:44.057Z,2472.00
2022-12-14T09:35:43.964Z,2608.00
2022-12-14T09:40:43.926Z,3040.00
2022-12-14T09:45:43.913Z,3164.00
2022-12-14T09:50:43.817Z,3280.00
2022-12-14T09:55:43.765Z,3744.00
2022-12-14T10:00:48.118Z,3880.00
2022-12-14T10:05:44.696Z,3840.00
2022-12-14T10:10:43.712Z,3236.00
2022-12-14T10:15:43.643Z,2816.00
2022-12-14T10:20:43.534Z,2912.00
2022-12-14T10:25:43.461Z,3356.00
2022-12-14T10:30:43.414Z,3960.00
2022-12-14T10:35:43.331Z,3752.00
2022-12-14T10:40:44.298Z,3672.00
2022-12-14T10:45:44.256Z,4612.00
2022-12-14T10:50:43.264Z,5024.00
2022-12-14T10:55:44.143Z,5036.00
2022-12-14T11:00:43.042Z,5220.00
2022-12-14T11:05:43.067Z,5164.00
2022-12-14T11:10:42.985Z,5172.00
2022-12-14T11:15:42.911Z,5200.00
2022-12-14T11:20:43.010Z,5300.00
2022-12-14T11:25:42.796Z,5368.00
2022-12-14T11:30:42.896Z,5360.00
2022-12-14T11:35:43.771Z,5216.00
2022-12-14T11:40:42.708Z,5312.00
2022-12-14T11:45:42.578Z,5384.00
2022-12-14T11:50:43.547Z,5712.00
2022-12-14T11:55:42.471Z,5808.00
2022-12-14T12:00:46.744Z,5920.00
2022-12-14T12:05:42.366Z,5672.00
2022-12-14T12:10:42.385Z,5448.00
2022-12-14T12:15:43.383Z,5348.00
2022-12-14T12:20:43.256Z,5332.00
2022-12-14T12:25:42.144Z,4752.00
2022-12-14T12:30:43.157Z,3900.00
2022-12-14T12:35:42.037Z,2956.00
2022-12-14T12:40:41.976Z,2648.00
2022-12-14T12:45:41.917Z,2476.00
2022-12-14T12:50:41.888Z,2464.00
2022-12-14T12:55:41.826Z,2424.00
2022-12-14T13:00:41.810Z,2396.00
2022-12-14T13:05:46.806Z,2348.00
2022-12-14T13:11:02.477Z,2528.00
2022-12-14T13:15:42.653Z,2268.00
2022-12-14T13:20:41.656Z,2412.00
2022-12-14T13:25:41.620Z,2272.00
2022-12-14T13:30:41.443Z,2216.00
2022-12-14T13:35:41.431Z,2184.00
2022-12-14T13:40:41.335Z,2092.00
2022-12-14T13:45:41.266Z,1996.00
2022-12-14T13:50:52.977Z,1932.00
2022-12-14T13:55:42.132Z,1872.00
2022-12-14T14:00:41.184Z,1804.00
2022-12-14T14:05:41.055Z,1752.00
2022-12-14T14:10:41.047Z,1676.00
2022-12-14T14:16:04.030Z,1600.00
2022-12-14T14:20:41.945Z,1520.00
2022-12-14T14:25:40.932Z,1432.00
2022-12-14T14:30:40.818Z,1336.00
2022-12-14T14:35:40.739Z,1224.00
2022-12-14T14:45:41.779Z,1016.00
2022-12-14T14:50:40.567Z,892.00
2022-12-14T14:55:55.982Z,760.00
2022-12-14T15:00:43.589Z,632.00
2022-12-14T15:05:42.623Z,496.00
2022-12-14T15:10:40.515Z,388.00
2022-12-14T15:15:42.584Z,284.00
2022-12-14T15:20:41.665Z,208.00
2022-12-14T15:25:40.245Z,140.00
2022-12-14T15:30:40.201Z,92.00
2022-12-14T15:35:40.141Z,52.00
2022-12-14T15:40:40.078Z,28.00
2022-12-14T15:45:40.133Z,16.00
2022-12-14T15:50:39.963Z,8.00
2022-12-14T15:55:39.957Z,4.00
2022-12-14T16:00:39.970Z,0.00
2022-12-14T16:05:40.755Z,0.00
2022-12-14T16:10:39.761Z,0.00
2022-12-14T16:15:39.668Z,0.00
2022-12-14T16:20:39.620Z,0.00
2022-12-14T16:25:39.568Z,0.00
2022-12-14T16:30:39.630Z,0.00
2022-12-14T16:35:39.448Z,0.00
2022-12-14T16:40:39.444Z,0.00
2022-12-14T16:45:39.428Z,0.00
2022-12-14T16:50:56.299Z,0.00
2022-12-14T16:55:40.358Z,0.00
2022-12-14T17:00:39.232Z,0.00
2022-12-14T17:05:39.217Z,0.00
2022-12-14T17:10:39.133Z,0.00
2022-12-14T17:15:39.096Z,0.00
2022-12-14T17:20:39.024Z,0.00
2022-12-14T17:25:46.063Z,0.00
2022-12-14T17:30:39.919Z,0.00
2022-12-14T17:35:38.936Z,0.00
2022-12-14T17:40:38.826Z,0.00
2022-12-14T17:45:38.746Z,0.00
2022-12-14T17:50:38.692Z,0.00
2022-12-14T17:55:38.613Z,0.00
2022-12-14T18:00:38.650Z,0.00
2022-12-14T18:05:46.600Z,0.00
2022-12-14T18:10:40.440Z,0.00
2022-12-14T18:15:38.435Z,0.00
2022-12-14T18:20:38.337Z,0.00
2022-12-14T18:25:39.445Z,0.00
2022-12-14T18:30:43.041Z,0.00
2022-12-14T18:35:39.228Z,0.00
2022-12-14T18:40:38.182Z,0.00
2022-12-14T18:45:38.139Z,0.00
2022-12-14T18:50:42.579Z,0.00
2022-12-14T18:55:38.123Z,0.00
2022-12-14T19:00:37.991Z,0.00
2022-12-14T19:05:37.862Z,0.00
2022-12-14T19:10:37.966Z,0.00
2022-12-14T19:15:38.803Z,0.00
2022-12-14T19:20:37.798Z,0.00
2022-12-14T19:25:37.711Z,0.00
2022-12-14T19:30:37.669Z,0.00
2022-12-14T19:35:37.648Z,0.00
2022-12-14T19:40:37.567Z,0.00
2022-12-14T19:45:37.469Z,0.00
2022-12-14T19:50:37.431Z,0.00
2022-12-14T19:55:37.338Z,0.00
2022-12-14T20:00:37.305Z,0.00
2022-12-14T20:05:37.261Z,0.00
2022-12-14T20:10:37.332Z,0.00
2022-12-14T20:15:37.246Z,0.00
2022-12-14T20:20:37.100Z,0.00
2022-12-14T20:25:37.095Z,0.00
2022-12-14T20:30:37.012Z,0.00
2022-12-14T20:35:36.915Z,0.00
2022-12-14T20:40:38.826Z,0.00
2022-12-14T20:45:36.902Z,0.00
2022-12-14T20:50:36.745Z,0.00
2022-12-14T20:55:36.704Z,0.00
2022-12-14T21:00:36.681Z,0.00
2022-12-14T21:05:36.593Z,0.00
2022-12-14T21:10:36.519Z,0.00
2022-12-14T21:15:36.495Z,0.00
2022-12-14T21:20:36.466Z,0.00
2022-12-14T21:25:36.350Z,0.00
2022-12-14T21:30:36.355Z,0.00
2022-12-14T21:35:36.256Z,0.00
2022-12-14T21:40:36.278Z,0.00
2022-12-14T21:45:36.209Z,0.00
2022-12-14T21:50:36.102Z,0.00
2022-12-14T21:55:36.183Z,0.00
2022-12-14T22:00:36.034Z,0.00
2022-12-14T22:05:35.998Z,0.00
2022-12-14T22:10:35.924Z,0.00
2022-12-14T22:15:35.824Z,0.00
2022-12-14T22:20:35.782Z,0.00
2022-12-14T22:25:35.712Z,0.00
2022-12-14T22:30:35.679Z,0.00
2022-12-14T22:35:35.634Z,0.00
2022-12-14T22:40:35.598Z,0.00
2022-12-14T22:45:35.677Z,0.00
2022-12-14T22:50:35.488Z,0.00
2022-12-14T22:55:35.404Z,0.00
2022-12-14T23:00:35.437Z,0.00
2022-12-14T23:05:35.331Z,0.00
2022-12-14T23:10:35.327Z,0.00
2022-12-14T23:15:35.201Z,0.00
2022-12-14T23:20:35.161Z,0.00
2022-12-14T23:25:35.157Z,0.00
2022-12-14T23:30:35.096Z,0.00
2022-12-14T23:35:35.005Z,0.00
2022-12-14T23:40:34.917Z,0.00
2022-12-14T23:45:34.860Z,0.00
2022-12-14T23:50:34.965Z,0.00
2022-12-14T23:55:34.783Z,0.00
